Time;durP1;ratioP1;P1;durP2;ratioP2;P2;SDS_P1;SDS_P2;PMS_P1;PMS_P2;Temp;Humidity;BMP_temperature;BMP_pressure;BME280_temperature;BME280_humidity;BME280_pressure;Samples;Min_cycle;Max_cycle;Signal;HPM_P1;HPM_P2
2023/08/01 00:00:07;;;;;;;11.40;6.00;;;;;;;14.74;98.73;98379.36;273438;1269;22362;-84
2023/08/01 00:06:50;;;;;;;11.00;6.00;;;;;;;14.73;98.65;98369.92;273362;1269;23178;-84
2023/08/01 00:13:12;;;;;;;12.90;7.00;;;;;;;14.65;99.15;98367.38;273450;1258;22429;-86
2023/08/01 00:19:34;;;;;;;10.70;5.70;;;;;;;14.62;99.74;98359.87;273355;1259;22297;-85
2023/08/01 00:25:36;;;;;;;8.80;5.40;;;;;;;14.62;100.00;98347.98;273209;1257;22450;-85
2023/08/01 00:31:39;;;;;;;14.10;6.60;;;;;;;14.64;100.00;98338.66;273452;1269;22393;-85
2023/08/01 00:38:21;;;;;;;11.10;6.40;;;;;;;14.64;100.00;98328.59;273587;1256;22381;-85
2023/08/01 00:45:04;;;;;;;13.60;6.60;;;;;;;14.68;100.00;98323.89;273479;1258;22361;-85
2023/08/01 00:51:08;;;;;;;10.30;5.60;;;;;;;14.66;100.00;98311.95;273478;1269;23028;-85
2023/08/01 00:57:10;;;;;;;10.20;6.70;;;;;;;14.60;100.00;98306.45;272867;1269;23369;-85
2023/08/01 01:03:32;;;;;;;13.90;6.90;;;;;;;14.54;100.00;98292.31;273335;1259;22155;-85
2023/08/01 01:09:33;;;;;;;12.50;6.80;;;;;;;14.44;100.00;98279.24;272285;1269;23050;-85
2023/08/01 01:15:35;;;;;;;11.00;6.90;;;;;;;14.35;100.00;98275.69;271811;1259;22382;-85
2023/08/01 01:21:39;;;;;;;13.40;6.40;;;;;;;14.33;100.00;98267.45;271954;1264;22511;-85
2023/08/01 01:27:59;;;;;;;11.90;6.00;;;;;;;14.30;100.00;98256.50;273274;1269;22197;-85
2023/08/01 01:34:21;;;;;;;10.30;6.80;;;;;;;14.25;100.00;98245.70;272500;1269;22496;-86
2023/08/01 01:40:23;;;;;;;13.90;6.10;;;;;;;14.19;100.00;98234.52;271523;1269;22202;-85
2023/08/01 01:46:24;;;;;;;10.90;6.60;;;;;;;14.13;100.00;98223.14;273148;1269;22355;-85
2023/08/01 01:52:26;;;;;;;9.40;7.10;;;;;;;14.09;100.00;98216.83;272508;1268;22344;-85
2023/08/01 01:58:28;;;;;;;12.80;6.90;;;;;;;14.06;100.00;98201.15;273279;1259;22438;-85
2023/08/01 02:04:50;;;;;;;11.20;6.40;;;;;;;14.02;100.00;98191.87;272963;1269;22438;-85
2023/08/01 02:11:13;;;;;;;14.30;6.70;;;;;;;13.98;100.00;98190.90;270894;1269;22555;-85
2023/08/01 02:17:17;;;;;;;11.30;7.50;;;;;;;13.92;100.00;98185.11;270976;1269;22409;-85
2023/08/01 02:24:03;;;;;;;10.40;5.80;;;;;;;13.83;100.00;98171.80;272258;1269;23061;-86
2023/08/01 02:30:11;;;;;;;8.50;5.70;;;;;;;13.77;100.00;98169.69;273598;1259;22468;-85
2023/08/01 02:36:13;;;;;;;9.10;6.10;;;;;;;13.80;100.00;98172.07;272144;1259;23314;-85
2023/08/01 02:42:23;;;;;;;9.90;6.60;;;;;;;13.74;100.00;98172.31;273559;1266;22484;-85
2023/08/01 02:48:25;;;;;;;10.90;6.00;;;;;;;13.67;100.00;98167.40;273346;1270;22506;-85
2023/08/01 02:54:28;;;;;;;11.90;6.70;;;;;;;13.64;100.00;98166.73;273460;1268;22385;-85
2023/08/01 03:00:31;;;;;;;9.10;6.00;;;;;;;13.61;100.00;98157.35;273489;1269;22167;-85
2023/08/01 03:06:33;;;;;;;11.80;6.60;;;;;;;13.52;100.00;98151.50;273423;1269;23382;-85
2023/08/01 03:13:01;;;;;;;9.80;6.60;;;;;;;13.46;100.00;98148.35;272227;1260;22234;-87
2023/08/01 03:19:06;;;;;;;11.50;6.10;;;;;;;13.43;100.00;98136.54;272052;1260;22512;-85
2023/08/01 03:25:16;;;;;;;9.40;6.50;;;;;;;13.42;100.00;98136.09;272852;1269;22318;-84
2023/08/01 03:31:17;;;;;;;10.90;6.20;;;;;;;13.44;100.00;98131.80;273284;1269;22361;-85
2023/08/01 03:37:19;;;;;;;11.00;6.00;;;;;;;13.48;100.00;98131.93;272306;1269;22571;-85
2023/08/01 03:43:23;;;;;;;6.80;5.60;;;;;;;13.53;100.00;98133.10;270866;1266;22342;-86
2023/08/01 03:49:54;;;;;;;10.60;6.60;;;;;;;13.64;100.00;98128.63;271898;1269;22170;-84
2023/08/01 03:56:15;;;;;;;10.30;6.70;;;;;;;13.77;100.00;98115.92;272636;1269;22579;-84
2023/08/01 04:02:18;;;;;;;12.30;5.90;;;;;;;13.96;100.00;98108.62;273531;1269;22226;-85
2023/08/01 04:08:34;;;;;;;12.50;5.80;;;;;;;14.11;100.00;98112.94;273502;1269;22839;-85
2023/08/01 04:14:35;;;;;;;10.20;6.80;;;;;;;14.20;100.00;98108.31;273124;1269;22649;-86
2023/08/01 04:20:44;;;;;;;11.90;6.80;;;;;;;14.26;100.00;98103.89;271105;1255;22408;-86
2023/08/01 04:26:46;;;;;;;7.00;5.90;;;;;;;14.43;100.00;98103.19;273159;1269;22598;-86
2023/08/01 04:32:49;;;;;;;12.10;7.30;;;;;;;14.60;100.00;98096.19;273216;1268;22167;-85
2023/08/01 04:38:50;;;;;;;10.40;6.50;;;;;;;14.77;100.00;98093.80;272972;1256;22303;-85
2023/08/01 04:45:14;;;;;;;9.80;6.10;;;;;;;14.98;100.00;98079.75;273406;1269;22650;-86
2023/08/01 04:51:15;;;;;;;10.60;5.50;;;;;;;15.19;100.00;98067.02;273373;1269;23851;-85
2023/08/01 04:57:17;;;;;;;7.70;4.70;;;;;;;15.33;100.00;98063.79;271426;1269;22460;-85
2023/08/01 05:03:19;;;;;;;9.90;5.20;;;;;;;15.41;100.00;98059.05;273393;1269;22358;-85
2023/08/01 05:09:29;;;;;;;7.80;4.90;;;;;;;15.50;100.00;98050.81;273387;1269;23081;-86
2023/08/01 05:16:11;;;;;;;9.80;4.40;;;;;;;15.70;100.00;98045.76;273439;1269;22404;-84
2023/08/01 05:22:14;;;;;;;8.50;4.10;;;;;;;15.95;100.00;98045.45;273370;1269;22330;-84
2023/08/01 05:28:16;;;;;;;6.50;4.10;;;;;;;16.16;100.00;98044.84;272819;1269;22632;-84
2023/08/01 05:34:17;;;;;;;7.80;3.60;;;;;;;16.47;100.00;98042.80;272739;1269;22516;-84
2023/08/01 05:40:19;;;;;;;4.60;3.20;;;;;;;16.76;100.00;98045.23;272660;1269;22617;-84
2023/08/01 05:46:21;;;;;;;6.90;3.50;;;;;;;17.04;100.00;98047.04;273044;1269;22342;-83
2023/08/01 05:52:48;;;;;;;5.20;3.60;;;;;;;17.37;100.00;98041.67;273432;1260;23232;-84
2023/08/01 05:58:50;;;;;;;9.00;4.00;;;;;;;17.72;100.00;98037.13;272930;1269;22451;-83
2023/08/01 06:04:52;;;;;;;4.90;3.50;;;;;;;18.01;100.00;98036.16;273398;1269;22321;-84
2023/08/01 06:11:16;;;;;;;6.60;3.60;;;;;;;18.19;100.00;98042.90;273373;1258;22961;-84
2023/08/01 06:17:20;;;;;;;10.60;4.30;;;;;;;18.40;100.00;98041.94;273184;1260;23155;-84
2023/08/01 06:23:50;;;;;;;8.70;4.10;;;;;;;18.60;100.00;98041.14;273299;1269;22327;-84
2023/08/01 06:29:52;;;;;;;4.30;2.40;;;;;;;18.76;100.00;98036.75;273316;1269;22379;-85
2023/08/01 06:35:57;;;;;;;6.90;2.30;;;;;;;18.95;100.00;98039.68;273201;1270;23939;-84
2023/08/01 06:41:59;;;;;;;4.70;2.10;;;;;;;19.12;100.00;98035.33;273259;1269;22478;-85
2023/08/01 06:48:00;;;;;;;5.80;2.60;;;;;;;19.25;100.00;98020.96;273355;1269;22389;-85
2023/08/01 06:54:30;;;;;;;8.70;2.20;;;;;;;19.34;100.00;98015.17;273347;1269;22406;-83
2023/08/01 07:00:32;;;;;;;4.50;2.50;;;;;;;19.54;100.00;98011.23;272902;1269;22557;-85
2023/08/01 07:06:36;;;;;;;3.60;2.60;;;;;;;19.74;99.69;98007.81;270858;1267;23226;-84
2023/08/01 07:12:58;;;;;;;5.60;2.70;;;;;;;19.91;98.79;98008.13;271458;1270;23746;-85
2023/08/01 07:19:00;;;;;;;8.10;3.00;;;;;;;19.97;97.70;98004.55;271238;1269;22499;-84
2023/08/01 07:25:03;;;;;;;7.00;3.30;;;;;;;19.93;97.60;98004.64;273189;1269;22177;-85
2023/08/01 07:31:06;;;;;;;4.00;2.60;;;;;;;19.89;97.65;98001.64;273339;1269;22225;-84
2023/08/01 07:37:07;;;;;;;3.30;2.50;;;;;;;19.92;97.24;97996.83;271381;1269;22544;-84
2023/08/01 07:43:09;;;;;;;3.20;2.20;;;;;;;19.99;96.82;97990.58;271891;1269;22166;-84
2023/08/01 07:49:12;;;;;;;3.60;2.30;;;;;;;20.13;95.88;97984.37;272910;1255;22143;-84
2023/08/01 07:55:14;;;;;;;3.80;2.40;;;;;;;20.29;95.85;97981.77;273126;1269;23589;-84
2023/08/01 08:01:37;;;;;;;8.00;2.90;;;;;;;20.42;95.02;97975.95;268786;1269;5831585;-84
2023/08/01 08:07:44;;;;;;;4.20;2.30;;;;;;;20.63;93.81;97968.64;273247;1265;22325;-84
2023/08/01 08:13:48;;;;;;;3.00;2.30;;;;;;;20.79;92.69;97970.45;273164;1264;22410;-84
2023/08/01 08:20:10;;;;;;;4.50;3.00;;;;;;;20.91;92.27;97968.39;272953;1270;22351;-82
2023/08/01 08:26:53;;;;;;;3.40;2.20;;;;;;;21.07;92.53;97962.89;273098;1264;23743;-83
2023/08/01 08:33:39;;;;;;;3.70;2.30;;;;;;;21.27;92.05;97958.36;272121;1269;23284;-83
2023/08/01 08:39:43;;;;;;;2.60;2.10;;;;;;;21.36;91.01;97959.46;270777;1269;22538;-83
2023/08/01 08:46:05;;;;;;;4.20;2.60;;;;;;;21.35;90.34;97958.02;270425;1260;23318;-82
2023/08/01 08:52:13;;;;;;;3.20;2.00;;;;;;;21.21;90.58;97958.48;271468;1254;22310;-82
2023/08/01 08:58:17;;;;;;;5.80;3.00;;;;;;;21.07;90.69;97952.73;272892;1269;23842;-83
2023/08/01 09:04:21;;;;;;;4.70;2.30;;;;;;;20.96;91.26;97944.77;272087;1267;22234;-85
2023/08/01 09:10:24;;;;;;;3.10;2.10;;;;;;;20.98;91.55;97938.25;272748;1269;23545;-84
2023/08/01 09:16:26;;;;;;;4.40;2.70;;;;;;;21.06;92.20;97934.05;273094;1265;22466;-84
2023/08/01 09:22:27;;;;;;;4.60;2.80;;;;;;;21.12;92.97;97928.68;272382;1269;22618;-83
2023/08/01 09:28:30;;;;;;;3.20;2.50;;;;;;;21.18;94.09;97921.64;271152;1267;22364;-84
2023/08/01 09:35:14;;;;;;;4.00;2.50;;;;;;;21.20;93.57;97918.79;273270;1257;22582;-84
2023/08/01 09:41:37;;;;;;;5.30;2.80;;;;;;;21.19;94.01;97907.99;272817;1269;22736;-83
2023/08/01 09:47:38;;;;;;;6.10;2.70;;;;;;;21.19;93.45;97904.84;272958;1269;22539;-84
2023/08/01 09:54:30;;;;;;;3.00;2.40;;;;;;;21.20;93.39;97898.15;273148;1259;22303;-84
2023/08/01 10:01:01;;;;;;;8.30;2.40;;;;;;;21.26;93.40;97897.23;272247;1269;22533;-84
2023/08/01 10:07:43;;;;;;;4.00;2.90;;;;;;;21.30;93.38;97902.02;271623;1269;22541;-83
2023/08/01 10:14:20;;;;;;;5.10;3.30;;;;;;;21.37;92.42;97904.71;272945;1269;22451;-82
2023/08/01 10:20:50;;;;;;;7.00;4.00;;;;;;;21.29;91.28;97908.63;273182;1269;22228;-81
2023/08/01 10:26:52;;;;;;;6.20;4.30;;;;;;;21.10;91.30;97907.51;273360;1268;22386;-81
2023/08/01 10:33:34;;;;;;;8.70;4.20;;;;;;;20.87;91.75;97907.36;273319;1257;22369;-81
2023/08/01 10:40:37;;;;;;;5.50;3.90;;;;;;;20.68;92.04;97909.52;273062;1260;22186;-82
2023/08/01 10:46:52;;;;;;;5.70;3.50;;;;;;;20.54;93.46;97917.13;273484;1259;22803;-82
2023/08/01 10:59:59;;;;;;;11.90;4.00;;;;;;;20.13;95.35;97936.14;273465;1269;22322;-84
2023/08/01 11:06:01;;;;;;;12.00;4.50;;;;;;;19.85;96.98;97936.80;272281;1257;22612;-85
2023/08/01 11:12:03;;;;;;;8.40;4.20;;;;;;;19.72;98.49;97931.52;273652;1269;22293;-85
2023/08/01 11:18:05;;;;;;;9.70;4.00;;;;;;;19.60;99.25;97934.88;272393;1256;22370;-83
2023/08/01 11:24:07;;;;;;;6.60;3.70;;;;;;;19.46;100.00;97930.69;273027;1269;22292;-84
2023/08/01 11:30:09;;;;;;;7.20;4.20;;;;;;;19.43;100.00;97921.15;271551;1260;22538;-83
2023/08/01 11:36:12;;;;;;;7.50;4.00;;;;;;;19.42;100.00;97914.46;273158;1260;22212;-83
2023/08/01 11:42:34;;;;;;;5.10;3.80;;;;;;;19.35;100.00;97916.42;273146;1266;23475;-83
2023/08/01 11:48:36;;;;;;;4.80;3.70;;;;;;;19.30;100.00;97914.92;272363;1259;22266;-83
2023/08/01 11:54:47;;;;;;;4.80;3.80;;;;;;;19.26;100.00;97920.80;272746;1269;23815;-83
2023/08/01 12:00:51;;;;;;;8.90;4.80;;;;;;;19.24;100.00;97934.36;272036;1259;25321;-84
2023/08/01 12:06:56;;;;;;;7.30;4.20;;;;;;;19.19;100.00;97942.86;271335;1257;25385;-84
2023/08/01 12:12:59;;;;;;;4.80;3.40;;;;;;;19.10;100.00;97935.79;272100;1266;23004;-84
2023/08/01 12:19:44;;;;;;;4.70;2.90;;;;;;;18.99;100.00;97931.20;272043;1269;22414;-82
2023/08/01 12:25:47;;;;;;;5.00;2.70;;;;;;;18.88;100.00;97934.04;272388;1269;23381;-83
2023/08/01 12:32:16;;;;;;;5.40;3.00;;;;;;;18.76;100.00;97940.77;272580;1262;23825;-83
2023/08/01 12:38:48;;;;;;;8.70;2.80;;;;;;;18.68;100.00;97941.39;273258;1254;22551;-84
2023/08/01 12:44:53;;;;;;;5.90;3.00;;;;;;;18.66;100.00;97941.86;273181;1256;23131;-83
2023/08/01 12:51:22;;;;;;;5.00;2.90;;;;;;;18.63;100.00;97943.30;272278;1268;23830;-82
2023/08/01 12:57:25;;;;;;;5.60;3.30;;;;;;;18.62;100.00;97929.35;272727;1260;23369;-83
2023/08/01 13:03:53;;;;;;;4.10;2.70;;;;;;;18.57;100.00;97921.21;272209;1269;23704;-82
2023/08/01 13:09:57;;;;;;;5.10;3.10;;;;;;;18.50;100.00;97927.79;272942;1269;22524;-83
2023/08/01 13:15:59;;;;;;;5.20;2.60;;;;;;;18.47;100.00;97935.53;273372;1269;22600;-84
2023/08/01 13:22:03;;;;;;;4.90;2.70;;;;;;;18.41;100.00;97932.73;271833;1268;22675;-82
2023/08/01 13:28:08;;;;;;;3.30;2.70;;;;;;;18.36;100.00;97924.82;273232;1269;23800;-84
2023/08/01 13:34:10;;;;;;;3.60;2.50;;;;;;;18.32;100.00;97921.02;271503;1256;23051;-82
2023/08/01 13:40:13;;;;;;;3.80;2.50;;;;;;;18.27;100.00;97914.40;271660;1261;22359;-83
2023/08/01 13:46:17;;;;;;;4.20;2.50;;;;;;;18.20;100.00;97924.95;273009;1260;22440;-83
2023/08/01 13:52:39;;;;;;;3.80;2.60;;;;;;;18.11;100.00;97912.44;270800;1269;22535;-82
2023/08/01 13:58:41;;;;;;;3.30;2.40;;;;;;;18.06;100.00;97901.56;272571;1269;22396;-83
2023/08/01 14:05:07;;;;;;;4.10;2.40;;;;;;;18.00;100.00;97902.54;271087;1269;22500;-83
2023/08/01 14:11:10;;;;;;;4.00;2.30;;;;;;;17.93;100.00;97900.91;272745;1260;22338;-82
2023/08/01 14:17:38;;;;;;;3.70;2.40;;;;;;;17.92;100.00;97900.16;272583;1269;22302;-82
2023/08/01 14:23:57;;;;;;;2.70;2.00;;;;;;;17.92;100.00;97896.27;272923;1269;22487;-80
2023/08/01 14:30:02;;;;;;;2.80;2.10;;;;;;;17.90;100.00;97887.09;272873;1263;23836;-82
2023/08/01 14:36:25;;;;;;;3.20;2.30;;;;;;;17.87;100.00;97885.70;272634;1260;22176;-82
2023/08/01 14:42:55;;;;;;;3.60;2.00;;;;;;;17.80;100.00;97873.92;271960;1269;22339;-81
2023/08/01 14:48:59;;;;;;;4.10;2.30;;;;;;;17.74;100.00;97871.77;271930;1269;22228;-84
2023/08/01 14:55:02;;;;;;;5.10;2.90;;;;;;;17.69;100.00;97863.72;272712;1269;24367;-83
2023/08/01 15:01:03;;;;;;;6.30;2.90;;;;;;;17.67;100.00;97865.77;271259;1261;22479;-84
2023/08/01 15:07:25;;;;;;;3.20;2.30;;;;;;;17.67;100.00;97857.25;271184;1269;22637;-83
2023/08/01 15:13:27;;;;;;;3.90;2.30;;;;;;;17.68;100.00;97867.64;272683;1260;22198;-83
2023/08/01 15:19:30;;;;;;;3.10;2.30;;;;;;;17.67;100.00;97887.29;273299;1269;22507;-83
2023/08/01 15:25:32;;;;;;;3.60;2.30;;;;;;;17.65;100.00;97887.89;273107;1259;22529;-82
2023/08/01 15:31:35;;;;;;;4.00;2.30;;;;;;;17.62;100.00;97875.27;273563;1269;22361;-82
2023/08/01 15:37:38;;;;;;;3.90;2.10;;;;;;;17.58;100.00;97875.58;272636;1269;22566;-83
2023/08/01 15:43:40;;;;;;;8.00;2.60;;;;;;;17.56;100.00;97876.86;271647;1259;22377;-82
2023/08/01 15:49:57;;;;;;;3.10;2.20;;;;;;;17.55;100.00;97870.39;272005;1269;22625;-81
2023/08/01 15:56:07;;;;;;;3.00;2.10;;;;;;;17.52;100.00;97860.60;272382;1268;22540;-82
2023/08/01 16:02:09;;;;;;;6.90;1.90;;;;;;;17.50;100.00;97847.48;272908;1256;22463;-82
2023/08/01 16:08:13;;;;;;;4.00;2.20;;;;;;;17.50;100.00;97839.58;272370;1269;22299;-80
2023/08/01 16:14:35;;;;;;;3.40;1.90;;;;;;;17.50;100.00;97830.57;272202;1259;22569;-83
2023/08/01 16:20:37;;;;;;;3.50;2.10;;;;;;;17.48;100.00;97828.25;271987;1265;22306;-82
2023/08/01 16:26:39;;;;;;;4.70;1.80;;;;;;;17.46;100.00;97830.52;272535;1259;22529;-83
2023/08/01 16:33:01;;;;;;;4.90;2.20;;;;;;;17.44;100.00;97832.19;271580;1269;22704;-82
2023/08/01 16:39:02;;;;;;;2.70;1.90;;;;;;;17.43;100.00;97845.02;272944;1269;23509;-83
2023/08/01 16:45:07;;;;;;;3.10;1.70;;;;;;;17.38;100.00;97866.86;271546;1269;22504;-82
2023/08/01 16:51:08;;;;;;;2.90;2.10;;;;;;;17.34;100.00;97874.63;270374;1256;24218;-83
2023/08/01 16:57:10;;;;;;;4.20;2.00;;;;;;;17.29;100.00;97874.09;270525;1269;22703;-83
2023/08/01 17:03:15;;;;;;;3.20;2.10;;;;;;;17.24;100.00;97867.00;272838;1269;22249;-84
2023/08/01 17:09:38;;;;;;;5.90;2.10;;;;;;;17.21;100.00;97876.89;273439;1269;22391;-83
2023/08/01 17:16:01;;;;;;;4.70;2.40;;;;;;;17.24;100.00;97893.61;272563;1268;22625;-83
2023/08/01 17:22:03;;;;;;;5.60;2.30;;;;;;;17.27;100.00;97896.73;271595;1269;22556;-83
2023/08/01 17:28:04;;;;;;;6.30;3.30;;;;;;;17.28;100.00;97894.43;272141;1269;22489;-83
2023/08/01 17:34:09;;;;;;;16.80;6.20;;;;;;;17.26;100.00;97891.82;273260;1269;22515;-82
2023/08/01 17:40:11;;;;;;;7.00;3.20;;;;;;;17.26;100.00;97891.74;272444;1269;23525;-83
2023/08/01 17:46:13;;;;;;;6.20;2.60;;;;;;;17.22;100.00;97884.92;273400;1269;22230;-84
2023/08/01 17:52:15;;;;;;;8.50;3.10;;;;;;;17.18;100.00;97878.79;273049;1269;22452;-84
2023/08/01 17:58:20;;;;;;;5.40;2.90;;;;;;;17.15;100.00;97879.21;273240;1269;22525;-83
2023/08/01 18:05:03;;;;;;;3.50;2.50;;;;;;;17.06;100.00;97874.91;272897;1269;22451;-82
2023/08/01 18:11:46;;;;;;;4.00;2.50;;;;;;;16.98;100.00;97867.91;273122;1269;22235;-83
2023/08/01 18:18:10;;;;;;;4.20;2.20;;;;;;;16.94;100.00;97856.19;273211;1269;22379;-84
2023/08/01 18:24:12;;;;;;;4.50;2.00;;;;;;;16.91;100.00;97846.02;272957;1269;22204;-84
2023/08/01 18:30:14;;;;;;;12.80;2.50;;;;;;;16.85;100.00;97847.89;273006;1269;22433;-84
2023/08/01 18:36:21;;;;;;;5.70;2.30;;;;;;;16.78;100.00;97852.60;272888;1269;22418;-84
2023/08/01 18:42:23;;;;;;;3.80;2.00;;;;;;;16.72;100.00;97845.31;271933;1259;22577;-85
2023/08/01 18:48:50;;;;;;;5.70;2.00;;;;;;;16.64;100.00;97851.30;271825;1269;22544;-84
2023/08/01 18:54:51;;;;;;;3.40;2.10;;;;;;;16.58;100.00;97856.27;272673;1254;23684;-84
2023/08/01 19:00:54;;;;;;;5.20;2.30;;;;;;;16.52;100.00;97872.11;273136;1256;22528;-84
2023/08/01 19:06:57;;;;;;;4.50;2.10;;;;;;;16.46;100.00;97888.80;271662;1259;22563;-84
2023/08/01 19:13:19;;;;;;;5.30;2.70;;;;;;;16.41;100.00;97887.11;272694;1260;22292;-83
2023/08/01 19:19:21;;;;;;;5.50;2.70;;;;;;;16.35;100.00;97887.63;273644;1269;22487;-84
2023/08/01 19:26:04;;;;;;;4.00;2.70;;;;;;;16.33;100.00;97881.83;273666;1257;22427;-83
2023/08/01 19:32:07;;;;;;;5.90;2.50;;;;;;;16.30;100.00;97881.61;272681;1259;22646;-85
2023/08/01 19:38:40;;;;;;;4.80;2.20;;;;;;;16.29;100.00;97883.36;273216;1267;22768;-84
2023/08/01 19:45:03;;;;;;;4.60;1.90;;;;;;;16.27;100.00;97888.09;273570;1260;22449;-85
2023/08/01 19:51:06;;;;;;;3.80;2.40;;;;;;;16.25;100.00;97896.83;273473;1259;23733;-85
2023/08/01 19:57:08;;;;;;;4.60;2.80;;;;;;;16.25;100.00;97905.41;273121;1264;22444;-84
2023/08/01 20:03:12;;;;;;;2.60;1.90;;;;;;;16.20;100.00;97901.70;273159;1267;183600;-84
2023/08/01 20:09:16;;;;;;;6.90;2.80;;;;;;;16.14;100.00;97903.83;272517;1267;23005;-84
2023/08/01 20:15:21;;;;;;;4.90;2.60;;;;;;;16.12;100.00;97911.46;272274;1265;22420;-84
2023/08/01 20:21:26;;;;;;;2.90;2.10;;;;;;;16.08;100.00;97908.02;271608;1253;24361;-83
2023/08/01 20:27:28;;;;;;;3.80;2.30;;;;;;;16.00;100.00;97899.80;271735;1269;23300;-84
2023/08/01 20:34:15;;;;;;;4.00;2.30;;;;;;;15.96;100.00;97900.88;272020;1266;23113;-84
2023/08/01 20:40:39;;;;;;;4.50;2.40;;;;;;;15.89;100.00;97896.25;272786;1269;23267;-82
2023/08/01 20:46:40;;;;;;;3.90;2.50;;;;;;;15.88;100.00;97873.19;271960;1266;22501;-83
2023/08/01 20:52:45;;;;;;;3.20;2.30;;;;;;;15.84;100.00;97861.88;271940;1270;23291;-82
2023/08/01 20:58:46;;;;;;;3.80;2.40;;;;;;;15.84;100.00;97869.84;272113;1267;23982;-82
2023/08/01 21:04:48;;;;;;;4.20;2.40;;;;;;;15.83;100.00;97880.19;271789;1269;25932;-82
2023/08/01 21:10:51;;;;;;;3.80;2.20;;;;;;;15.81;100.00;97890.65;271846;1266;22643;-84
2023/08/01 21:16:52;;;;;;;5.90;2.30;;;;;;;15.82;100.00;97900.86;271462;1269;22539;-84
2023/08/01 21:23:36;;;;;;;4.10;2.60;;;;;;;15.82;100.00;97924.05;271844;1262;22541;-83
2023/08/01 21:29:57;;;;;;;4.50;2.20;;;;;;;15.81;100.00;97946.01;271716;1269;23025;-83
2023/08/01 21:36:15;;;;;;;4.50;2.80;;;;;;;15.71;100.00;97944.13;271028;1267;22613;-83
2023/08/01 21:42:16;;;;;;;4.40;2.80;;;;;;;15.72;100.00;97939.79;271396;1269;23942;-83
2023/08/01 21:48:18;;;;;;;3.60;2.80;;;;;;;15.75;100.00;97939.53;271619;1269;22547;-84
2023/08/01 21:54:19;;;;;;;5.20;2.50;;;;;;;15.73;100.00;97919.17;272474;1257;23565;-84
2023/08/01 22:00:22;;;;;;;3.80;2.30;;;;;;;15.71;100.00;97916.38;273717;1269;22640;-84
2023/08/01 22:06:23;;;;;;;5.30;2.80;;;;;;;15.67;100.00;97912.54;272455;1269;22989;-84
2023/08/01 22:12:25;;;;;;;4.90;2.20;;;;;;;15.72;100.00;97914.95;272345;1256;22517;-83
2023/08/01 22:18:27;;;;;;;7.80;2.90;;;;;;;15.72;100.00;97903.73;273540;1267;22194;-84
2023/08/01 22:24:29;;;;;;;3.80;2.30;;;;;;;15.67;100.00;97917.20;273224;1269;23818;-84
2023/08/01 22:30:31;;;;;;;4.30;2.50;;;;;;;15.67;100.00;97922.80;272946;1267;22509;-84
2023/08/01 22:36:32;;;;;;;3.80;2.40;;;;;;;15.66;100.00;97917.14;272858;1267;22619;-85
2023/08/01 22:42:35;;;;;;;4.00;2.10;;;;;;;15.67;100.00;97918.61;271618;1267;22504;-84
2023/08/01 22:48:36;;;;;;;3.40;2.30;;;;;;;15.67;100.00;97921.69;271462;1267;22567;-82
2023/08/01 22:54:38;;;;;;;4.10;2.10;;;;;;;15.68;100.00;97917.42;271747;1267;22399;-84
2023/08/01 23:00:40;;;;;;;4.90;1.90;;;;;;;15.68;100.00;97918.36;272544;1257;22344;-83
2023/08/01 23:06:42;;;;;;;5.70;2.50;;;;;;;15.67;100.00;97914.02;270748;1267;22555;-83
2023/08/01 23:13:04;;;;;;;5.30;2.10;;;;;;;15.65;100.00;97902.73;271793;1258;24018;-84
2023/08/01 23:19:08;;;;;;;5.40;2.70;;;;;;;15.58;100.00;97909.09;270918;1266;22527;-81
2023/08/01 23:25:10;;;;;;;3.90;2.60;;;;;;;15.52;100.00;97919.41;272292;1269;23787;-82
2023/08/01 23:31:12;;;;;;;2.80;2.00;;;;;;;15.51;100.00;97914.30;271163;1267;22351;-81
2023/08/01 23:37:31;;;;;;;3.80;2.00;;;;;;;15.51;100.00;97912.23;271174;1256;22610;-83
2023/08/01 23:43:34;;;;;;;3.90;2.30;;;;;;;15.53;100.00;97898.65;271570;1260;22191;-83
2023/08/01 23:50:00;;;;;;;4.30;2.10;;;;;;;15.53;100.00;97897.94;271216;1269;23464;-83
2023/08/01 23:56:02;;;;;;;3.20;1.90;;;;;;;15.53;100.00;97898.95;271023;1269;23226;-83
